Time;durP1;ratioP1;P1;durP2;ratioP2;P2;SDS_P1;SDS_P2;PMS_P1;PMS_P2;Temp;Humidity;BMP_temperature;BMP_pressure;BME280_temperature;BME280_humidity;BME280_pressure;Samples;Min_cycle;Max_cycle;Signal;HPM_P1;HPM_P2
2023/03/18 00:01:36;;;;;;;19.60;11.60;;;;;;;11.10;57.42;101108.09;108328;1286;21989;-66
2023/03/18 00:04:03;;;;;;;21.00;11.60;;;;;;;11.11;57.26;101107.39;108331;1285;21988;-66
2023/03/18 00:06:29;;;;;;;24.30;12.80;;;;;;;11.09;57.62;101110.89;108278;1279;21991;-67
2023/03/18 00:08:57;;;;;;;19.60;12.50;;;;;;;11.11;57.37;101111.07;108303;1286;21994;-66
2023/03/18 00:11:22;;;;;;;23.00;12.20;;;;;;;11.13;57.32;101114.76;108304;1285;21986;-68
2023/03/18 00:13:49;;;;;;;22.00;12.00;;;;;;;11.15;57.30;101117.04;108230;1285;22028;-66
2023/03/18 00:16:16;;;;;;;19.10;11.50;;;;;;;11.18;57.34;101114.57;108192;1286;21998;-66
2023/03/18 00:18:43;;;;;;;19.60;10.40;;;;;;;11.19;57.49;101116.50;108291;1281;21995;-66
2023/03/18 00:21:09;;;;;;;20.80;11.70;;;;;;;11.21;57.49;101119.66;108323;1285;24000;-68
2023/03/18 00:23:41;;;;;;;18.10;11.50;;;;;;;11.20;57.49;101122.64;108201;1272;21986;-66
2023/03/18 00:26:07;;;;;;;22.40;12.80;;;;;;;11.16;57.72;101120.89;108155;1283;21993;-68
2023/03/18 00:28:33;;;;;;;18.80;11.40;;;;;;;11.08;57.89;101114.06;108282;1285;21983;-68
2023/03/18 00:31:07;;;;;;;16.60;11.00;;;;;;;10.99;58.35;101113.39;108160;1285;21996;-68
2023/03/18 00:33:34;;;;;;;19.00;11.30;;;;;;;10.97;59.05;101110.75;108108;1286;23062;-68
2023/03/18 00:36:00;;;;;;;17.50;10.80;;;;;;;11.06;58.49;101110.20;108104;1285;21987;-67
2023/03/18 00:38:26;;;;;;;18.50;11.80;;;;;;;11.14;58.02;101108.08;108087;1286;22060;-69
2023/03/18 00:41:09;;;;;;;18.40;11.10;;;;;;;11.10;58.33;101105.45;108239;1285;21991;-65
2023/03/18 00:43:44;;;;;;;18.90;10.90;;;;;;;11.12;58.35;101104.92;108199;1285;21987;-67
2023/03/18 00:46:15;;;;;;;21.50;11.80;;;;;;;11.19;58.35;101103.67;108254;1285;21950;-68
2023/03/18 00:48:41;;;;;;;19.20;11.00;;;;;;;11.18;58.22;101101.40;108341;1284;22755;-68
2023/03/18 00:51:07;;;;;;;23.00;11.30;;;;;;;11.18;58.09;101099.29;108186;1285;22451;-66
2023/03/18 00:53:34;;;;;;;24.40;12.20;;;;;;;11.19;58.17;101099.98;108088;1281;22027;-66
2023/03/18 00:55:59;;;;;;;19.70;10.70;;;;;;;11.18;58.59;101103.86;105067;1285;1003621;-65
2023/03/18 00:58:25;;;;;;;18.40;11.10;;;;;;;11.19;58.21;101103.48;108154;1277;21984;-66
2023/03/18 01:00:53;;;;;;;22.00;11.80;;;;;;;11.19;58.55;101102.44;108164;1285;22040;-66
2023/03/18 01:03:24;;;;;;;21.10;11.40;;;;;;;11.22;58.38;101105.25;108261;1277;22448;-66
2023/03/18 01:05:52;;;;;;;21.20;11.20;;;;;;;11.21;58.51;101100.68;108060;1285;23712;-66
2023/03/18 01:08:20;;;;;;;20.40;11.00;;;;;;;11.20;58.53;101100.67;108252;1285;21981;-66
2023/03/18 01:10:47;;;;;;;22.20;12.10;;;;;;;11.22;58.67;101102.45;108299;1285;21983;-68
2023/03/18 01:13:14;;;;;;;19.80;11.20;;;;;;;11.21;58.76;101105.43;108164;1285;23609;-69
2023/03/18 01:15:40;;;;;;;23.60;12.60;;;;;;;11.21;58.59;101107.17;108199;1272;21987;-67
2023/03/18 01:18:07;;;;;;;24.20;12.50;;;;;;;11.21;58.77;101107.89;108085;1285;22108;-68
2023/03/18 01:20:33;;;;;;;26.80;13.40;;;;;;;11.18;59.33;101106.84;108088;1285;21994;-68
2023/03/18 01:23:00;;;;;;;25.10;13.40;;;;;;;11.14;59.43;101105.09;108032;1285;21996;-66
2023/03/18 01:25:26;;;;;;;24.10;12.90;;;;;;;11.10;59.45;101104.40;108126;1285;21984;-68
2023/03/18 01:27:52;;;;;;;20.80;12.30;;;;;;;11.09;59.66;101104.57;108182;1272;21986;-68
2023/03/18 01:30:19;;;;;;;26.30;14.00;;;;;;;11.07;59.91;101101.24;108112;1285;22010;-68
2023/03/18 01:32:46;;;;;;;22.00;12.50;;;;;;;11.06;60.13;101096.84;108060;1285;21995;-65
2023/03/18 01:35:12;;;;;;;25.00;12.60;;;;;;;11.09;60.26;101097.20;108197;1285;21994;-68
2023/03/18 01:37:39;;;;;;;23.10;12.60;;;;;;;11.11;60.35;101096.84;108121;1286;21981;-69
2023/03/18 01:40:06;;;;;;;23.20;12.50;;;;;;;11.11;60.05;101099.48;108170;1285;22049;-65
2023/03/18 01:42:32;;;;;;;25.50;12.70;;;;;;;11.13;60.09;101100.70;108136;1286;21957;-65
2023/03/18 01:45:30;;;;;;;23.00;12.40;;;;;;;11.15;60.03;101104.38;108157;1285;22019;-69
2023/03/18 01:47:57;;;;;;;28.30;14.30;;;;;;;11.17;60.54;101105.27;107946;1285;21990;-68
2023/03/18 01:50:26;;;;;;;25.80;14.20;;;;;;;11.18;60.40;101110.71;108116;1285;21995;-67
2023/03/18 01:52:55;;;;;;;21.10;12.60;;;;;;;11.20;60.41;101108.77;108178;1285;21977;-68
2023/03/18 01:55:24;;;;;;;27.70;13.00;;;;;;;11.23;60.34;101111.57;108118;1285;21983;-66
2023/03/18 01:57:50;;;;;;;26.60;14.30;;;;;;;11.25;60.37;101114.90;108308;1286;23058;-68
2023/03/18 02:00:18;;;;;;;27.60;14.40;;;;;;;11.25;60.80;101119.64;108143;1272;22000;-66
2023/03/18 02:02:46;;;;;;;29.50;15.20;;;;;;;11.25;60.44;101124.73;108254;1273;21983;-66
2023/03/18 02:05:15;;;;;;;28.10;15.20;;;;;;;11.24;60.55;101121.58;108121;1283;21993;-67
2023/03/18 02:07:41;;;;;;;30.50;14.90;;;;;;;11.24;60.71;101121.40;108145;1284;21998;-66
2023/03/18 02:10:22;;;;;;;28.30;14.50;;;;;;;11.25;60.65;101121.23;108103;1285;21997;-66
2023/03/18 02:12:56;;;;;;;27.10;15.50;;;;;;;11.27;60.33;101126.11;108276;1285;21992;-67
2023/03/18 02:15:23;;;;;;;29.90;14.60;;;;;;;11.29;60.53;101123.30;108099;1285;22746;-67
2023/03/18 02:17:58;;;;;;;28.60;14.20;;;;;;;11.32;60.65;101124.00;108200;1285;21984;-68
2023/03/18 02:20:34;;;;;;;31.60;15.20;;;;;;;11.34;60.47;101121.19;108191;1281;21994;-69
2023/03/18 02:23:04;;;;;;;28.90;14.80;;;;;;;11.34;60.50;101117.33;108168;1286;21990;-66
2023/03/18 02:25:59;;;;;;;27.90;15.00;;;;;;;11.35;60.40;101119.06;108245;1285;22050;-69
2023/03/18 02:28:26;;;;;;;28.70;16.20;;;;;;;11.35;60.75;101115.92;108131;1285;21994;-65
2023/03/18 02:30:54;;;;;;;25.70;14.60;;;;;;;11.34;60.68;101117.33;108302;1286;21989;-69
2023/03/18 02:33:21;;;;;;;27.10;14.80;;;;;;;11.35;60.57;101117.67;108082;1284;23184;-69
2023/03/18 02:35:54;;;;;;;28.30;14.90;;;;;;;11.37;60.73;101115.55;108177;1285;22000;-65
2023/03/18 02:38:20;;;;;;;24.80;14.40;;;;;;;11.40;60.74;101112.04;108220;1285;22104;-69
2023/03/18 02:40:47;;;;;;;26.60;15.00;;;;;;;11.46;60.86;101107.97;108123;1285;21997;-65
2023/03/18 02:43:21;;;;;;;27.70;15.60;;;;;;;11.35;61.45;101108.71;108126;1286;21989;-65
2023/03/18 02:45:58;;;;;;;25.90;15.20;;;;;;;11.27;61.97;101106.27;108132;1285;22759;-69
2023/03/18 02:48:33;;;;;;;26.00;15.50;;;;;;;11.26;62.25;101105.04;108212;1272;21986;-68
2023/03/18 02:51:00;;;;;;;27.10;15.40;;;;;;;11.24;62.21;101106.13;108093;1285;22815;-68
2023/03/18 02:53:26;;;;;;;26.90;16.00;;;;;;;11.21;62.57;101106.14;108082;1285;21997;-69
2023/03/18 02:55:51;;;;;;;25.40;14.40;;;;;;;11.26;62.36;101101.53;108114;1285;21990;-67
2023/03/18 02:58:17;;;;;;;25.10;15.80;;;;;;;11.28;62.32;101097.67;108121;1272;21986;-65
2023/03/18 03:00:45;;;;;;;23.20;14.10;;;;;;;11.31;62.59;101102.05;108096;1285;21982;-69
2023/03/18 03:03:11;;;;;;;26.10;16.50;;;;;;;11.46;62.08;101101.81;108062;1285;22022;-67
2023/03/18 03:05:37;;;;;;;27.20;16.50;;;;;;;11.57;61.35;101096.14;108102;1285;22021;-68
2023/03/18 03:08:03;;;;;;;27.50;15.80;;;;;;;11.59;60.92;101096.66;108098;1285;21986;-66
2023/03/18 03:10:29;;;;;;;26.90;16.10;;;;;;;11.59;60.82;101095.60;105875;1285;1002867;-68
2023/03/18 03:12:59;;;;;;;29.00;17.30;;;;;;;11.60;60.97;101095.95;108075;1285;21984;-69
2023/03/18 03:15:25;;;;;;;28.80;17.30;;;;;;;11.59;61.02;101091.91;108158;1285;21973;-66
2023/03/18 03:17:51;;;;;;;26.50;15.80;;;;;;;11.58;61.20;101092.61;108163;1285;22008;-65
2023/03/18 03:20:19;;;;;;;23.60;14.90;;;;;;;11.58;61.25;101093.67;108118;1285;21987;-68
2023/03/18 03:22:45;;;;;;;25.00;15.90;;;;;;;11.60;61.13;101096.11;108084;1277;21987;-68
2023/03/18 03:25:11;;;;;;;23.90;15.00;;;;;;;11.60;61.05;101098.06;108003;1285;21984;-67
2023/03/18 03:27:37;;;;;;;30.90;17.30;;;;;;;11.60;61.22;101103.86;108050;1285;21989;-65
2023/03/18 03:30:08;;;;;;;29.40;18.70;;;;;;;11.61;61.10;101107.20;108081;1285;21992;-66
2023/03/18 03:32:34;;;;;;;30.50;17.90;;;;;;;11.63;61.29;101108.94;108122;1282;22070;-68
2023/03/18 03:35:00;;;;;;;29.60;18.00;;;;;;;11.63;61.26;101112.11;108076;1284;22792;-66
2023/03/18 03:37:26;;;;;;;28.50;17.20;;;;;;;11.61;61.30;101107.55;108194;1285;22001;-69
2023/03/18 03:39:53;;;;;;;31.10;18.10;;;;;;;11.62;61.31;101104.20;108289;1285;22002;-68
2023/03/18 03:42:19;;;;;;;29.50;17.20;;;;;;;11.64;61.22;101109.11;108160;1285;21984;-65
2023/03/18 03:44:49;;;;;;;28.70;16.70;;;;;;;11.67;61.22;101112.80;108057;1282;21987;-65
2023/03/18 03:47:15;;;;;;;30.60;18.50;;;;;;;11.72;61.39;101113.28;108140;1285;21979;-68
2023/03/18 03:49:41;;;;;;;27.30;17.30;;;;;;;11.74;61.34;101114.33;108232;1285;22027;-67
2023/03/18 03:52:07;;;;;;;31.10;19.00;;;;;;;11.75;61.26;101114.50;108214;1285;21986;-69
2023/03/18 03:54:33;;;;;;;27.00;17.30;;;;;;;11.75;61.08;101114.32;108104;1285;21990;-70
2023/03/18 03:57:03;;;;;;;26.50;18.20;;;;;;;11.76;61.00;101112.91;108161;1285;23657;-69
2023/03/18 03:59:29;;;;;;;28.40;17.80;;;;;;;11.75;60.88;101116.78;108257;1283;22000;-66
2023/03/18 04:01:55;;;;;;;26.60;17.80;;;;;;;11.75;60.90;101119.25;108146;1285;22024;-66
2023/03/18 04:04:22;;;;;;;26.50;17.70;;;;;;;11.76;61.06;101116.77;108191;1285;21992;-66
2023/03/18 04:06:48;;;;;;;25.90;17.90;;;;;;;11.79;61.36;101116.23;108057;1285;21990;-69
2023/03/18 04:09:14;;;;;;;29.50;17.80;;;;;;;11.80;61.33;101114.48;108045;1285;21986;-69
2023/03/18 04:11:41;;;;;;;31.90;18.70;;;;;;;11.80;61.08;101115.71;108009;1285;21992;-69
2023/03/18 04:14:08;;;;;;;26.90;18.30;;;;;;;11.82;61.14;101120.45;108010;1285;22054;-68
2023/03/18 04:16:37;;;;;;;31.30;18.30;;;;;;;11.85;60.93;101127.46;108016;1285;21979;-66
2023/03/18 04:19:02;;;;;;;26.70;18.80;;;;;;;11.86;61.24;101124.83;108117;1285;22047;-66
2023/03/18 04:21:29;;;;;;;28.70;18.10;;;;;;;11.87;61.12;101125.34;108076;1285;22025;-68
2023/03/18 04:23:56;;;;;;;31.00;17.60;;;;;;;11.90;60.98;101124.09;108043;1285;21991;-68
2023/03/18 04:26:22;;;;;;;29.20;19.30;;;;;;;11.94;61.09;101122.84;108017;1282;21991;-66
2023/03/18 04:28:48;;;;;;;25.60;16.90;;;;;;;11.95;60.98;101121.41;108047;1285;22028;-65
2023/03/18 04:31:15;;;;;;;26.00;17.10;;;;;;;11.97;61.07;101120.35;108085;1285;22000;-68
2023/03/18 04:33:41;;;;;;;27.00;17.70;;;;;;;12.00;61.16;101123.17;108056;1285;21988;-66
2023/03/18 04:36:07;;;;;;;27.20;18.20;;;;;;;12.05;61.16;101119.81;108051;1285;21989;-67
2023/03/18 04:38:34;;;;;;;30.90;19.60;;;;;;;12.09;61.12;101119.80;105838;1285;1002497;-67
2023/03/18 04:41:05;;;;;;;28.60;18.00;;;;;;;12.12;61.07;101125.05;108043;1279;22000;-66
2023/03/18 04:43:34;;;;;;;33.40;18.50;;;;;;;12.15;61.05;101127.30;108084;1285;22001;-67
2023/03/18 04:45:59;;;;;;;38.20;19.10;;;;;;;12.17;61.11;101123.77;108083;1285;21988;-67
2023/03/18 04:48:26;;;;;;;29.60;17.40;;;;;;;12.21;61.14;101126.38;108118;1285;21984;-66
2023/03/18 04:50:53;;;;;;;30.30;18.50;;;;;;;12.25;61.07;101122.84;108039;1285;21986;-66
2023/03/18 04:53:19;;;;;;;27.70;17.70;;;;;;;12.28;61.35;101124.77;108109;1285;21986;-68
2023/03/18 04:55:49;;;;;;;30.60;18.90;;;;;;;12.30;61.15;101123.50;108132;1285;21992;-67
2023/03/18 04:58:16;;;;;;;32.00;19.60;;;;;;;12.30;61.74;101128.26;108188;1285;21995;-65
2023/03/18 05:00:43;;;;;;;30.50;20.10;;;;;;;12.30;61.61;101128.08;108110;1285;22006;-67
2023/03/18 05:03:10;;;;;;;26.90;18.10;;;;;;;12.30;61.58;101130.55;108094;1285;21994;-66
2023/03/18 05:05:36;;;;;;;29.20;19.00;;;;;;;12.31;61.55;101132.13;108095;1272;21996;-66
2023/03/18 05:08:02;;;;;;;25.50;17.60;;;;;;;12.30;61.51;101136.70;108172;1285;21984;-69
2023/03/18 05:10:28;;;;;;;28.50;19.20;;;;;;;12.31;61.24;101145.33;108093;1285;21989;-67
2023/03/18 05:12:55;;;;;;;28.70;19.50;;;;;;;12.31;61.34;101145.67;107403;1285;1002940;-69
2023/03/18 05:15:21;;;;;;;27.70;19.60;;;;;;;12.31;61.40;101147.79;108081;1285;22024;-67
2023/03/18 05:17:47;;;;;;;27.90;19.10;;;;;;;12.31;61.36;101149.73;108170;1285;22009;-65
2023/03/18 05:20:14;;;;;;;32.30;20.80;;;;;;;12.30;61.30;101153.77;108089;1285;21983;-66
2023/03/18 05:22:42;;;;;;;29.90;19.80;;;;;;;12.30;61.27;101159.40;108126;1282;22040;-66
2023/03/18 05:25:10;;;;;;;28.70;18.00;;;;;;;12.31;61.24;101159.59;108094;1285;21990;-66
2023/03/18 05:27:36;;;;;;;29.50;19.10;;;;;;;12.31;61.29;101154.48;108104;1285;21989;-69
2023/03/18 05:30:03;;;;;;;29.70;18.70;;;;;;;12.32;61.19;101156.58;108138;1285;21989;-66
2023/03/18 05:32:32;;;;;;;30.00;19.40;;;;;;;12.35;61.03;101160.44;108188;1285;21993;-66
2023/03/18 05:34:58;;;;;;;31.10;21.10;;;;;;;12.37;61.03;101162.17;108184;1285;21981;-65
2023/03/18 05:37:24;;;;;;;30.20;20.50;;;;;;;12.38;61.13;101165.49;108111;1285;22023;-69
2023/03/18 05:39:50;;;;;;;30.30;19.10;;;;;;;12.40;61.04;101160.04;108180;1285;21991;-66
2023/03/18 05:42:16;;;;;;;33.20;19.60;;;;;;;12.41;61.05;101160.02;108237;1272;21991;-66
2023/03/18 05:44:45;;;;;;;32.20;19.70;;;;;;;12.41;61.09;101161.96;108107;1285;21986;-68
2023/03/18 05:47:12;;;;;;;31.00;19.50;;;;;;;12.42;61.15;101167.77;108178;1285;21994;-66
2023/03/18 05:49:37;;;;;;;29.80;20.00;;;;;;;12.44;61.22;101169.52;108306;1286;21982;-69
2023/03/18 05:52:03;;;;;;;32.00;20.90;;;;;;;12.45;61.31;101171.44;108121;1286;21987;-67
2023/03/18 05:54:29;;;;;;;35.80;21.40;;;;;;;12.46;61.20;101176.19;108194;1285;21992;-69
2023/03/18 05:56:58;;;;;;;33.00;20.20;;;;;;;12.50;61.03;101178.27;108247;1285;21998;-70
2023/03/18 05:59:24;;;;;;;32.60;19.70;;;;;;;12.54;60.75;101176.13;108244;1285;21997;-66
2023/03/18 06:01:50;;;;;;;31.10;19.40;;;;;;;12.57;60.81;101178.58;108180;1286;24141;-65
2023/03/18 06:04:17;;;;;;;29.90;19.20;;;;;;;12.59;60.76;101179.08;108136;1285;21972;-67
2023/03/18 06:06:43;;;;;;;32.10;20.00;;;;;;;12.61;60.90;101178.54;108149;1285;22023;-67
2023/03/18 06:09:10;;;;;;;27.80;19.10;;;;;;;12.61;60.79;101182.59;108103;1285;21951;-67
2023/03/18 06:11:38;;;;;;;35.10;22.00;;;;;;;12.57;61.01;101182.27;108224;1285;21992;-68
2023/03/18 06:14:05;;;;;;;31.40;19.60;;;;;;;12.56;61.16;101184.04;108199;1272;21976;-67
2023/03/18 06:16:32;;;;;;;31.80;19.40;;;;;;;12.58;61.23;101184.20;108207;1285;23063;-68
2023/03/18 06:18:58;;;;;;;32.00;20.20;;;;;;;12.59;61.28;101185.59;108292;1285;21987;-67
2023/03/18 06:21:24;;;;;;;33.50;20.50;;;;;;;12.60;61.16;101186.98;108146;1285;21986;-67
2023/03/18 06:23:53;;;;;;;34.90;20.60;;;;;;;12.62;61.17;101188.21;108205;1286;21986;-68
2023/03/18 06:26:20;;;;;;;31.90;21.40;;;;;;;12.64;61.31;101189.25;108247;1285;21989;-68
2023/03/18 06:28:46;;;;;;;34.70;21.20;;;;;;;12.63;61.28;101189.27;107487;1276;1002423;-68
2023/03/18 06:31:12;;;;;;;38.30;22.10;;;;;;;12.63;61.44;101192.25;108175;1285;21985;-66
2023/03/18 06:33:42;;;;;;;34.40;20.00;;;;;;;12.63;61.33;101190.66;107428;1280;1002297;-68
2023/03/18 06:36:09;;;;;;;35.80;21.80;;;;;;;12.63;61.16;101195.23;108336;1285;21983;-67
2023/03/18 06:38:35;;;;;;;36.10;20.70;;;;;;;12.65;61.19;101196.46;108126;1285;21996;-68
2023/03/18 06:41:05;;;;;;;35.00;20.70;;;;;;;12.67;61.13;101197.52;108096;1285;21994;-68
2023/03/18 06:43:30;;;;;;;34.40;21.00;;;;;;;12.71;61.29;101193.95;108229;1285;21991;-69
2023/03/18 06:45:58;;;;;;;36.50;22.80;;;;;;;12.74;61.39;101194.64;108110;1285;21987;-68
2023/03/18 06:48:24;;;;;;;37.00;22.80;;;;;;;12.76;61.41;101191.64;108150;1285;22027;-67
2023/03/18 06:50:50;;;;;;;38.70;23.30;;;;;;;12.77;61.35;101192.68;108118;1285;22475;-68
2023/03/18 06:53:17;;;;;;;37.00;21.20;;;;;;;12.77;61.43;101189.51;108178;1285;21990;-68
2023/03/18 06:55:44;;;;;;;37.00;20.70;;;;;;;12.78;61.41;101190.55;108146;1285;21996;-68
2023/03/18 06:58:09;;;;;;;35.50;20.90;;;;;;;12.80;61.52;101191.95;108130;1285;21996;-67
2023/03/18 07:00:35;;;;;;;31.80;20.30;;;;;;;12.81;61.40;101195.98;108122;1285;21955;-68
2023/03/18 07:03:01;;;;;;;34.10;21.90;;;;;;;12.84;61.46;101197.89;108125;1285;21983;-68
2023/03/18 07:05:29;;;;;;;38.80;23.10;;;;;;;12.87;61.55;101200.16;108123;1285;21991;-68
2023/03/18 07:07:55;;;;;;;37.90;22.00;;;;;;;12.90;61.63;101202.41;108129;1285;21989;-67
2023/03/18 07:10:24;;;;;;;34.90;21.30;;;;;;;12.96;61.61;101203.44;108167;1285;21989;-68
2023/03/18 07:12:56;;;;;;;39.10;22.90;;;;;;;13.01;61.47;101204.27;108174;1286;21986;-68
2023/03/18 07:15:23;;;;;;;36.40;22.70;;;;;;;13.03;61.54;101201.42;108167;1286;21997;-68
2023/03/18 07:17:49;;;;;;;36.40;21.80;;;;;;;13.04;61.50;101203.00;108022;1285;22452;-66
2023/03/18 07:20:21;;;;;;;38.70;21.50;;;;;;;13.07;61.80;101204.38;108132;1285;21984;-68
2023/03/18 07:22:46;;;;;;;37.20;21.00;;;;;;;13.15;61.57;101203.25;108177;1285;21985;-68
2023/03/18 07:25:12;;;;;;;41.20;22.40;;;;;;;13.18;61.34;101204.11;108125;1285;21980;-67
2023/03/18 07:27:44;;;;;;;36.90;22.90;;;;;;;13.20;61.14;101208.49;108160;1285;21985;-69
2023/03/18 07:30:11;;;;;;;34.10;21.80;;;;;;;13.24;61.17;101208.28;108188;1285;21994;-67
2023/03/18 07:32:37;;;;;;;37.80;22.00;;;;;;;13.25;60.97;101216.19;108207;1285;22036;-68
2023/03/18 07:35:04;;;;;;;37.10;22.30;;;;;;;13.24;60.84;101218.16;108148;1284;22027;-69
2023/03/18 07:37:31;;;;;;;34.20;21.70;;;;;;;13.24;60.80;101221.32;108155;1285;21991;-68
2023/03/18 07:40:01;;;;;;;;;;;;;;;13.25;60.73;101217.42;108187;1286;22077;-69
2023/03/18 07:42:27;;;;;;;33.90;20.50;;;;;;;13.27;60.60;101221.64;108119;1285;21993;-68
2023/03/18 07:44:54;;;;;;;32.70;21.40;;;;;;;13.29;60.70;101226.90;108128;1285;21989;-69
2023/03/18 07:47:19;;;;;;;32.10;21.20;;;;;;;13.31;60.75;101222.48;108149;1285;22050;-69
2023/03/18 07:49:46;;;;;;;30.90;19.40;;;;;;;13.32;60.58;101224.40;108092;1284;23136;-67
2023/03/18 07:52:12;;;;;;;34.80;21.30;;;;;;;13.34;60.64;101225.80;108241;1285;21994;-69
2023/03/18 07:54:38;;;;;;;34.90;21.20;;;;;;;13.34;60.50;101227.02;108133;1285;22045;-69
2023/03/18 07:57:04;;;;;;;31.60;19.80;;;;;;;13.38;60.45;101229.27;108095;1274;21989;-68
2023/03/18 07:59:30;;;;;;;34.10;19.30;;;;;;;13.42;60.53;101235.45;108166;1285;21995;-67
2023/03/18 08:01:55;;;;;;;34.50;20.10;;;;;;;13.43;60.43;101241.08;108133;1285;22046;-69
2023/03/18 08:04:26;;;;;;;34.70;21.80;;;;;;;13.45;60.32;101243.19;108134;1286;23134;-68
2023/03/18 08:06:54;;;;;;;36.60;21.20;;;;;;;13.47;60.19;101247.39;108150;1285;21987;-69
2023/03/18 08:09:20;;;;;;;34.40;19.30;;;;;;;13.47;60.08;101246.30;108133;1286;21983;-69
2023/03/18 08:11:47;;;;;;;33.50;19.40;;;;;;;13.46;60.00;101247.39;108114;1285;22000;-68
2023/03/18 08:14:13;;;;;;;32.20;20.50;;;;;;;13.46;60.04;101249.50;108123;1284;21986;-69
2023/03/18 08:16:38;;;;;;;34.00;18.60;;;;;;;13.46;59.92;101251.08;108214;1285;22024;-68
2023/03/18 08:19:05;;;;;;;37.60;20.00;;;;;;;13.46;59.90;101251.61;108159;1285;22004;-68
2023/03/18 08:21:31;;;;;;;39.10;21.10;;;;;;;13.46;59.88;101255.32;108306;1283;21993;-68
2023/03/18 08:23:57;;;;;;;37.20;20.70;;;;;;;13.48;59.96;101255.30;108290;1285;21994;-67
2023/03/18 08:26:22;;;;;;;32.80;20.40;;;;;;;13.49;59.83;101255.81;108300;1283;21991;-67
2023/03/18 08:28:48;;;;;;;31.90;18.10;;;;;;;13.46;59.91;101254.96;108301;1285;22047;-67
2023/03/18 08:31:15;;;;;;;36.90;19.80;;;;;;;13.50;59.72;101256.86;108292;1285;21989;-69
2023/03/18 08:33:42;;;;;;;37.10;20.50;;;;;;;13.50;59.64;101256.69;108263;1285;21987;-69
2023/03/18 08:36:08;;;;;;;36.50;20.40;;;;;;;13.51;59.62;101259.15;108332;1285;21984;-67
2023/03/18 08:38:36;;;;;;;40.20;21.30;;;;;;;13.52;59.64;101260.89;108226;1285;22000;-69
2023/03/18 08:41:02;;;;;;;36.40;20.40;;;;;;;13.54;59.66;101259.81;108299;1285;21985;-69
2023/03/18 08:43:28;;;;;;;40.50;20.50;;;;;;;13.56;59.84;101262.26;108141;1284;21989;-68
2023/03/18 08:45:55;;;;;;;39.50;20.50;;;;;;;13.60;59.76;101263.64;108172;1285;21985;-67
2023/03/18 08:48:21;;;;;;;35.90;20.70;;;;;;;13.63;59.60;101265.20;108208;1285;22450;-69
2023/03/18 08:50:47;;;;;;;38.30;21.30;;;;;;;13.65;59.59;101263.95;108214;1285;22003;-67
2023/03/18 08:53:13;;;;;;;39.00;20.30;;;;;;;13.68;59.63;101264.97;108342;1285;21997;-68
2023/03/18 08:55:39;;;;;;;40.20;20.70;;;;;;;13.70;59.71;101264.23;108210;1285;21993;-66
2023/03/18 08:58:07;;;;;;;40.00;20.10;;;;;;;13.73;59.71;101260.48;108258;1285;21986;-67
2023/03/18 09:00:33;;;;;;;36.00;19.70;;;;;;;13.76;59.57;101258.71;108265;1285;21982;-68
2023/03/18 09:03:00;;;;;;;35.80;18.60;;;;;;;13.76;59.41;101259.40;108276;1285;21986;-69
2023/03/18 09:05:26;;;;;;;37.00;19.30;;;;;;;13.77;59.41;101262.92;108284;1284;21986;-66
2023/03/18 09:07:52;;;;;;;34.30;17.40;;;;;;;13.78;59.34;101261.68;108302;1282;21985;-69
2023/03/18 09:10:20;;;;;;;34.80;18.90;;;;;;;13.82;59.48;101257.40;108264;1285;21998;-70
2023/03/18 09:12:48;;;;;;;34.20;19.00;;;;;;;13.86;59.35;101260.54;108323;1285;23738;-67
2023/03/18 09:15:14;;;;;;;34.10;18.50;;;;;;;13.88;59.46;101260.34;108250;1272;22037;-69
2023/03/18 09:17:40;;;;;;;30.40;16.70;;;;;;;13.87;59.21;101262.27;108338;1272;21985;-70
2023/03/18 09:20:10;;;;;;;31.90;17.70;;;;;;;13.85;59.47;101264.60;108221;1284;21988;-68
2023/03/18 09:22:40;;;;;;;34.00;15.90;;;;;;;13.93;59.24;101263.27;106661;1282;1002808;-68
2023/03/18 09:25:06;;;;;;;31.70;18.10;;;;;;;13.87;59.60;101265.46;108283;1285;22023;-68
2023/03/18 09:27:32;;;;;;;32.50;18.90;;;;;;;13.97;59.36;101262.16;108149;1285;22979;-68
2023/03/18 09:30:02;;;;;;;36.10;20.50;;;;;;;14.04;59.17;101266.31;108317;1285;21989;-67
2023/03/18 09:32:28;;;;;;;36.00;20.60;;;;;;;14.08;59.23;101269.96;108246;1284;23686;-67
2023/03/18 09:34:54;;;;;;;29.30;18.20;;;;;;;14.10;58.92;101271.17;108294;1285;23138;-68
2023/03/18 09:37:20;;;;;;;28.00;16.10;;;;;;;14.14;59.03;101272.19;108240;1285;21985;-69
2023/03/18 09:39:46;;;;;;;28.00;17.20;;;;;;;14.18;59.09;101275.48;108186;1285;21989;-67
2023/03/18 09:42:27;;;;;;;25.10;16.40;;;;;;;14.21;58.99;101281.63;108264;1285;21995;-67
2023/03/18 09:44:55;;;;;;;28.20;16.90;;;;;;;14.19;59.05;101279.89;108248;1285;21988;-68
2023/03/18 09:47:40;;;;;;;29.70;17.70;;;;;;;14.15;59.31;101276.23;108219;1285;22044;-68
2023/03/18 09:50:26;;;;;;;27.10;17.70;;;;;;;14.27;58.88;101278.54;108259;1277;22008;-69
2023/03/18 09:53:13;;;;;;;28.30;17.60;;;;;;;14.31;58.62;101273.20;108211;1285;22041;-68
2023/03/18 09:55:47;;;;;;;23.70;16.00;;;;;;;14.33;58.31;101274.60;108252;1285;22024;-69
2023/03/18 09:58:25;;;;;;;25.50;16.30;;;;;;;14.34;58.32;101276.87;108269;1285;21983;-67
2023/03/18 10:00:54;;;;;;;27.40;17.50;;;;;;;14.35;58.27;101274.73;108200;1285;21984;-67
2023/03/18 10:03:26;;;;;;;23.30;15.30;;;;;;;14.36;58.28;101271.18;108290;1285;24340;-69
2023/03/18 10:05:58;;;;;;;26.40;16.90;;;;;;;14.38;58.16;101270.81;108183;1285;21987;-69
2023/03/18 10:08:34;;;;;;;26.30;16.80;;;;;;;14.40;58.21;101273.08;108342;1284;21986;-68
2023/03/18 10:11:04;;;;;;;23.80;15.10;;;;;;;14.44;58.08;101268.08;108141;1286;21990;-66
2023/03/18 10:13:43;;;;;;;25.20;16.50;;;;;;;14.48;58.26;101271.02;108242;1285;23058;-65
2023/03/18 10:16:11;;;;;;;24.60;16.00;;;;;;;14.52;58.16;101269.04;108170;1286;23610;-67
2023/03/18 10:18:38;;;;;;;25.90;17.20;;;;;;;14.54;57.99;101265.65;108255;1285;21983;-67
2023/03/18 10:21:13;;;;;;;26.90;16.70;;;;;;;14.52;57.59;101266.02;108272;1285;22029;-68
2023/03/18 10:23:57;;;;;;;23.10;15.90;;;;;;;14.52;57.83;101266.92;108226;1285;21986;-68
2023/03/18 10:26:49;;;;;;;26.20;17.30;;;;;;;14.55;57.74;101268.27;108186;1285;21982;-67
2023/03/18 10:29:27;;;;;;;21.20;16.20;;;;;;;14.57;57.74;101272.48;108203;1286;22071;-68
2023/03/18 10:32:09;;;;;;;23.10;16.70;;;;;;;14.61;57.63;101274.55;108278;1285;23045;-68
2023/03/18 10:34:44;;;;;;;23.20;16.90;;;;;;;14.64;57.69;101274.34;108273;1285;23096;-67
2023/03/18 10:37:16;;;;;;;23.90;15.90;;;;;;;14.66;57.47;101269.70;108276;1272;21992;-68
2023/03/18 10:39:45;;;;;;;23.90;17.00;;;;;;;14.65;57.21;101268.66;108218;1285;22076;-67
2023/03/18 10:42:22;;;;;;;26.00;17.80;;;;;;;14.63;57.10;101265.33;108159;1286;22084;-66
2023/03/18 10:44:48;;;;;;;23.10;16.40;;;;;;;14.63;57.13;101264.10;108061;1286;21995;-66
2023/03/18 10:47:22;;;;;;;21.60;16.00;;;;;;;14.64;57.12;101261.77;108187;1285;21987;-68
2023/03/18 10:50:32;;;;;;;22.20;16.30;;;;;;;14.67;57.14;101258.73;108237;1285;21993;-68
2023/03/18 10:53:07;;;;;;;22.10;15.80;;;;;;;14.71;57.26;101258.69;108102;1285;22085;-68
2023/03/18 10:55:37;;;;;;;21.80;17.00;;;;;;;14.77;57.25;101258.27;108260;1285;21979;-69
2023/03/18 10:58:16;;;;;;;22.80;17.30;;;;;;;14.81;57.19;101258.02;108146;1285;22000;-68
2023/03/18 11:00:43;;;;;;;19.60;15.60;;;;;;;14.83;57.15;101254.10;108216;1285;21989;-67
2023/03/18 11:03:23;;;;;;;19.80;15.70;;;;;;;14.85;57.04;101252.66;108174;1285;21992;-67
2023/03/18 11:06:18;;;;;;;18.30;14.50;;;;;;;14.88;57.04;101251.02;108165;1285;21984;-68
2023/03/18 11:08:46;;;;;;;19.20;15.10;;;;;;;14.92;56.95;101248.14;108108;1285;24318;-68